sensor_id;sensor_type;location;lat;lon;timestamp;pressure;altitude;pressure_sealevel;temperature;humidity
29063;BME280;71206;48.564;-123.458;2023-08-31T00:00:07;101097.22;;;21.13;67.78
29063;BME280;71206;48.564;-123.458;2023-08-31T00:02:33;101092.59;;;21.58;64.40
29063;BME280;71206;48.564;-123.458;2023-08-31T00:04:56;101094.37;;;21.41;63.74
29063;BME280;71206;48.564;-123.458;2023-08-31T00:07:22;101097.11;;;22.40;60.68
29063;BME280;71206;48.564;-123.458;2023-08-31T00:09:47;101092.02;;;21.24;64.98
29063;BME280;71206;48.564;-123.458;2023-08-31T00:12:13;101089.12;;;20.73;66.86
29063;BME280;71206;48.564;-123.458;2023-08-31T00:14:39;101088.27;;;21.45;64.24
29063;BME280;71206;48.564;-123.458;2023-08-31T00:17:05;101082.89;;;21.73;62.99
29063;BME280;71206;48.564;-123.458;2023-08-31T00:19:30;101078.35;;;21.54;63.75
29063;BME280;71206;48.564;-123.458;2023-08-31T00:21:56;101082.38;;;21.70;62.79
29063;BME280;71206;48.564;-123.458;2023-08-31T00:24:22;101082.04;;;22.26;59.97
29063;BME280;71206;48.564;-123.458;2023-08-31T00:26:48;101079.62;;;22.19;59.42
29063;BME280;71206;48.564;-123.458;2023-08-31T00:29:14;101078.99;;;21.71;61.77
29063;BME280;71206;48.564;-123.458;2023-08-31T00:31:39;101074.00;;;22.93;57.01
29063;BME280;71206;48.564;-123.458;2023-08-31T00:34:04;101070.01;;;23.39;55.58
29063;BME280;71206;48.564;-123.458;2023-08-31T00:36:29;101069.92;;;23.09;55.33
29063;BME280;71206;48.564;-123.458;2023-08-31T00:38:55;101067.76;;;23.27;53.07
29063;BME280;71206;48.564;-123.458;2023-08-31T00:41:22;101073.43;;;21.83;59.63
29063;BME280;71206;48.564;-123.458;2023-08-31T00:43:46;101075.88;;;22.02;59.02
29063;BME280;71206;48.564;-123.458;2023-08-31T00:46:12;101074.89;;;22.59;57.24
29063;BME280;71206;48.564;-123.458;2023-08-31T00:48:38;101069.71;;;23.26;55.84
29063;BME280;71206;48.564;-123.458;2023-08-31T00:51:07;101065.12;;;23.29;53.54
29063;BME280;71206;48.564;-123.458;2023-08-31T00:53:30;101062.16;;;23.33;51.82
29063;BME280;71206;48.564;-123.458;2023-08-31T00:55:55;101057.98;;;23.92;50.29
29063;BME280;71206;48.564;-123.458;2023-08-31T00:58:21;101066.73;;;21.89;57.72
29063;BME280;71206;48.564;-123.458;2023-08-31T01:00:58;101066.71;;;21.67;60.15
29063;BME280;71206;48.564;-123.458;2023-08-31T01:03:16;101066.35;;;22.28;58.84
29063;BME280;71206;48.564;-123.458;2023-08-31T01:05:44;101056.49;;;23.16;54.87
29063;BME280;71206;48.564;-123.458;2023-08-31T01:08:12;101051.98;;;22.95;53.80
29063;BME280;71206;48.564;-123.458;2023-08-31T01:10:34;101059.81;;;22.56;56.80
29063;BME280;71206;48.564;-123.458;2023-08-31T01:12:57;101057.53;;;23.41;54.57
29063;BME280;71206;48.564;-123.458;2023-08-31T01:15:22;101054.72;;;23.74;53.76
29063;BME280;71206;48.564;-123.458;2023-08-31T01:17:50;101052.45;;;23.93;54.55
29063;BME280;71206;48.564;-123.458;2023-08-31T01:20:13;101053.99;;;22.86;58.23
29063;BME280;71206;48.564;-123.458;2023-08-31T01:22:51;101051.76;;;23.26;57.71
29063;BME280;71206;48.564;-123.458;2023-08-31T01:25:03;101053.10;;;23.35;57.85
29063;BME280;71206;48.564;-123.458;2023-08-31T01:27:28;101050.95;;;23.76;57.53
29063;BME280;71206;48.564;-123.458;2023-08-31T01:29:55;101049.75;;;22.88;59.27
29063;BME280;71206;48.564;-123.458;2023-08-31T01:32:20;101045.85;;;23.27;57.29
29063;BME280;71206;48.564;-123.458;2023-08-31T01:34:46;101044.13;;;22.83;60.46
29063;BME280;71206;48.564;-123.458;2023-08-31T01:37:15;101040.78;;;23.94;57.06
29063;BME280;71206;48.564;-123.458;2023-08-31T01:39:43;101037.49;;;23.97;57.50
29063;BME280;71206;48.564;-123.458;2023-08-31T01:42:04;101039.79;;;23.23;58.45
29063;BME280;71206;48.564;-123.458;2023-08-31T01:44:29;101037.46;;;23.18;60.14
29063;BME280;71206;48.564;-123.458;2023-08-31T01:46:54;101025.93;;;23.83;58.21
29063;BME280;71206;48.564;-123.458;2023-08-31T01:49:20;101029.19;;;23.47;58.61
29063;BME280;71206;48.564;-123.458;2023-08-31T01:51:45;101032.98;;;22.39;62.61
29063;BME280;71206;48.564;-123.458;2023-08-31T01:54:11;101032.52;;;22.43;64.28
29063;BME280;71206;48.564;-123.458;2023-08-31T01:56:41;101039.86;;;22.03;66.58
29063;BME280;71206;48.564;-123.458;2023-08-31T01:59:02;101029.93;;;23.39;61.95
29063;BME280;71206;48.564;-123.458;2023-08-31T02:01:33;101037.12;;;21.97;66.99
29063;BME280;71206;48.564;-123.458;2023-08-31T02:03:55;101029.12;;;23.48;60.71
29063;BME280;71206;48.564;-123.458;2023-08-31T02:06:20;101034.44;;;21.51;69.16
29063;BME280;71206;48.564;-123.458;2023-08-31T02:08:45;101028.86;;;22.43;65.26
29063;BME280;71206;48.564;-123.458;2023-08-31T02:11:11;101026.76;;;22.58;66.36
29063;BME280;71206;48.564;-123.458;2023-08-31T02:13:36;101023.93;;;23.25;64.84
29063;BME280;71206;48.564;-123.458;2023-08-31T02:16:02;101024.69;;;20.58;76.67
29063;BME280;71206;48.564;-123.458;2023-08-31T02:18:27;101018.74;;;22.55;66.58
29063;BME280;71206;48.564;-123.458;2023-08-31T02:20:53;101022.75;;;21.15;74.27
29063;BME280;71206;48.564;-123.458;2023-08-31T02:23:19;101024.87;;;19.51;90.57
29063;BME280;71206;48.564;-123.458;2023-08-31T02:25:45;101017.53;;;20.73;69.32
29063;BME280;71206;48.564;-123.458;2023-08-31T02:28:11;101020.51;;;20.49;69.37
29063;BME280;71206;48.564;-123.458;2023-08-31T02:30:44;101019.58;;;18.83;77.24
29063;BME280;71206;48.564;-123.458;2023-08-31T02:33:02;101020.91;;;18.01;84.25
29063;BME280;71206;48.564;-123.458;2023-08-31T02:35:28;101021.15;;;18.06;83.16
29063;BME280;71206;48.564;-123.458;2023-08-31T02:37:59;101009.29;;;18.78;76.62
29063;BME280;71206;48.564;-123.458;2023-08-31T02:40:20;101009.92;;;18.55;75.54
29063;BME280;71206;48.564;-123.458;2023-08-31T02:42:45;101013.91;;;17.98;79.93
29063;BME280;71206;48.564;-123.458;2023-08-31T02:45:11;101004.70;;;17.50;91.65
29063;BME280;71206;48.564;-123.458;2023-08-31T02:47:37;101004.92;;;17.50;89.64
29063;BME280;71206;48.564;-123.458;2023-08-31T02:50:04;101006.62;;;16.70;100.00
29063;BME280;71206;48.564;-123.458;2023-08-31T02:52:29;101002.20;;;16.27;100.00
29063;BME280;71206;48.564;-123.458;2023-08-31T02:54:55;100994.05;;;17.10;99.13
29063;BME280;71206;48.564;-123.458;2023-08-31T02:57:20;100993.64;;;16.42;100.00
29063;BME280;71206;48.564;-123.458;2023-08-31T02:59:49;100991.51;;;16.63;100.00
29063;BME280;71206;48.564;-123.458;2023-08-31T03:02:11;100991.67;;;17.14;95.73
29063;BME280;71206;48.564;-123.458;2023-08-31T03:04:36;100989.69;;;17.49;86.82
29063;BME280;71206;48.564;-123.458;2023-08-31T03:07:04;100986.98;;;16.57;99.33
29063;BME280;71206;48.564;-123.458;2023-08-31T03:09:28;100985.56;;;16.92;94.69
29063;BME280;71206;48.564;-123.458;2023-08-31T03:11:55;100984.33;;;17.54;88.51
29063;BME280;71206;48.564;-123.458;2023-08-31T03:14:20;100984.51;;;17.41;93.64
29063;BME280;71206;48.564;-123.458;2023-08-31T03:16:45;100983.76;;;16.23;100.00
29063;BME280;71206;48.564;-123.458;2023-08-31T03:19:11;100981.83;;;16.76;92.71
29063;BME280;71206;48.564;-123.458;2023-08-31T03:21:37;100980.53;;;17.04;96.24
29063;BME280;71206;48.564;-123.458;2023-08-31T03:24:04;100981.88;;;16.64;98.95
29063;BME280;71206;48.564;-123.458;2023-08-31T03:26:28;100980.37;;;16.50;98.31
29063;BME280;71206;48.564;-123.458;2023-08-31T03:28:56;100975.53;;;17.55;92.00
29063;BME280;71206;48.564;-123.458;2023-08-31T03:31:21;100973.39;;;17.67;85.23
29063;BME280;71206;48.564;-123.458;2023-08-31T03:33:44;100969.31;;;16.78;92.87
29063;BME280;71206;48.564;-123.458;2023-08-31T03:36:10;100970.57;;;17.63;86.46
29063;BME280;71206;48.564;-123.458;2023-08-31T03:38:37;100969.02;;;16.96;88.21
29063;BME280;71206;48.564;-123.458;2023-08-31T03:41:02;100966.25;;;16.72;87.84
29063;BME280;71206;48.564;-123.458;2023-08-31T03:43:31;100969.71;;;16.25;98.13
29063;BME280;71206;48.564;-123.458;2023-08-31T03:45:55;100970.86;;;16.25;99.99
29063;BME280;71206;48.564;-123.458;2023-08-31T03:48:17;100970.40;;;16.57;91.42
29063;BME280;71206;48.564;-123.458;2023-08-31T03:50:43;100970.40;;;16.73;89.04
29063;BME280;71206;48.564;-123.458;2023-08-31T03:53:10;100971.92;;;16.25;100.00
29063;BME280;71206;48.564;-123.458;2023-08-31T03:55:35;100964.87;;;17.17;85.32
29063;BME280;71206;48.564;-123.458;2023-08-31T03:57:59;100964.95;;;16.39;93.75
29063;BME280;71206;48.564;-123.458;2023-08-31T04:00:23;100964.00;;;16.27;94.48
29063;BME280;71206;48.564;-123.458;2023-08-31T04:02:54;100963.53;;;16.66;91.08
29063;BME280;71206;48.564;-123.458;2023-08-31T04:05:13;100962.88;;;16.75;89.69
29063;BME280;71206;48.564;-123.458;2023-08-31T04:07:38;100965.06;;;16.34;92.30
29063;BME280;71206;48.564;-123.458;2023-08-31T04:10:04;100964.20;;;17.04;82.19
29063;BME280;71206;48.564;-123.458;2023-08-31T04:12:28;100969.47;;;17.11;86.64
29063;BME280;71206;48.564;-123.458;2023-08-31T04:14:53;100965.49;;;17.79;79.98
29063;BME280;71206;48.564;-123.458;2023-08-31T04:17:18;100965.55;;;16.94;93.87
29063;BME280;71206;48.564;-123.458;2023-08-31T04:19:47;100969.10;;;16.49;100.00
29063;BME280;71206;48.564;-123.458;2023-08-31T04:22:09;100968.61;;;16.72;100.00
29063;BME280;71206;48.564;-123.458;2023-08-31T04:24:34;100971.33;;;15.52;100.00
29063;BME280;71206;48.564;-123.458;2023-08-31T04:26:59;100964.81;;;17.15;100.00
29063;BME280;71206;48.564;-123.458;2023-08-31T04:29:24;100967.02;;;17.36;100.00
29063;BME280;71206;48.564;-123.458;2023-08-31T04:31:49;100958.96;;;18.18;93.32
29063;BME280;71206;48.564;-123.458;2023-08-31T04:34:15;100956.91;;;18.62;92.06
29063;BME280;71206;48.564;-123.458;2023-08-31T04:36:41;100954.83;;;19.47;84.18
29063;BME280;71206;48.564;-123.458;2023-08-31T04:39:06;100951.99;;;20.13;83.22
29063;BME280;71206;48.564;-123.458;2023-08-31T04:41:33;100950.31;;;20.43;84.85
29063;BME280;71206;48.564;-123.458;2023-08-31T04:43:58;100948.34;;;20.88;83.02
29063;BME280;71206;48.564;-123.458;2023-08-31T04:46:24;100952.47;;;21.13;80.42
29063;BME280;71206;48.564;-123.458;2023-08-31T04:48:50;100947.59;;;21.15;75.18
29063;BME280;71206;48.564;-123.458;2023-08-31T04:51:30;100950.26;;;19.33;84.56
29063;BME280;71206;48.564;-123.458;2023-08-31T04:53:41;100943.33;;;20.76;84.29
29063;BME280;71206;48.564;-123.458;2023-08-31T04:56:09;100939.27;;;21.44;83.15
29063;BME280;71206;48.564;-123.458;2023-08-31T04:58:33;100935.30;;;21.23;82.30
29063;BME280;71206;48.564;-123.458;2023-08-31T05:00:58;100933.28;;;20.70;90.30
29063;BME280;71206;48.564;-123.458;2023-08-31T05:03:24;100935.31;;;21.06;90.76
29063;BME280;71206;48.564;-123.458;2023-08-31T05:05:51;100930.08;;;21.35;88.41
29063;BME280;71206;48.564;-123.458;2023-08-31T05:08:16;100927.75;;;21.59;86.34
29063;BME280;71206;48.564;-123.458;2023-08-31T05:10:47;100925.78;;;21.51;87.22
29063;BME280;71206;48.564;-123.458;2023-08-31T05:13:07;100924.08;;;21.49;86.74
29063;BME280;71206;48.564;-123.458;2023-08-31T05:15:34;100925.31;;;20.84;91.00
29063;BME280;71206;48.564;-123.458;2023-08-31T05:17:59;100921.15;;;20.38;91.55
29063;BME280;71206;48.564;-123.458;2023-08-31T05:20:25;100923.84;;;19.15;100.00
29063;BME280;71206;48.564;-123.458;2023-08-31T05:22:51;100919.70;;;20.79;96.14
29063;BME280;71206;48.564;-123.458;2023-08-31T05:25:17;100919.24;;;20.77;95.00
29063;BME280;71206;48.564;-123.458;2023-08-31T05:27:47;100925.65;;;18.88;100.00
29063;BME280;71206;48.564;-123.458;2023-08-31T05:30:10;100921.17;;;18.01;100.00
29063;BME280;71206;48.564;-123.458;2023-08-31T05:32:34;100919.97;;;18.15;100.00
29063;BME280;71206;48.564;-123.458;2023-08-31T05:35:00;100919.17;;;18.04;100.00
29063;BME280;71206;48.564;-123.458;2023-08-31T05:37:26;100915.08;;;18.84;100.00
29063;BME280;71206;48.564;-123.458;2023-08-31T05:39:53;100916.13;;;19.24;100.00
29063;BME280;71206;48.564;-123.458;2023-08-31T05:42:18;100910.86;;;20.07;100.00
29063;BME280;71206;48.564;-123.458;2023-08-31T05:44:43;100909.01;;;20.36;100.00
29063;BME280;71206;48.564;-123.458;2023-08-31T05:47:09;100911.52;;;20.75;100.00
29063;BME280;71206;48.564;-123.458;2023-08-31T05:49:35;100910.77;;;20.68;100.00
29063;BME280;71206;48.564;-123.458;2023-08-31T05:52:01;100910.16;;;20.76;100.00
29063;BME280;71206;48.564;-123.458;2023-08-31T05:54:26;100908.65;;;20.85;100.00
29063;BME280;71206;48.564;-123.458;2023-08-31T05:56:52;100913.38;;;19.02;100.00
29063;BME280;71206;48.564;-123.458;2023-08-31T05:59:18;100909.16;;;20.22;100.00
29063;BME280;71206;48.564;-123.458;2023-08-31T06:01:44;100910.76;;;20.56;100.00
29063;BME280;71206;48.564;-123.458;2023-08-31T06:04:20;100911.07;;;20.55;100.00
29063;BME280;71206;48.564;-123.458;2023-08-31T06:06:36;100912.51;;;20.06;100.00
29063;BME280;71206;48.564;-123.458;2023-08-31T06:09:03;100909.49;;;20.47;100.00
29063;BME280;71206;48.564;-123.458;2023-08-31T06:11:31;100909.09;;;20.93;100.00
29063;BME280;71206;48.564;-123.458;2023-08-31T06:13:53;100906.90;;;20.54;100.00
29063;BME280;71206;48.564;-123.458;2023-08-31T06:16:19;100905.21;;;20.59;100.00
29063;BME280;71206;48.564;-123.458;2023-08-31T06:18:45;100905.01;;;20.90;99.71
29063;BME280;71206;48.564;-123.458;2023-08-31T06:21:11;100901.95;;;20.39;100.00
29063;BME280;71206;48.564;-123.458;2023-08-31T06:23:37;100904.12;;;19.13;100.00
29063;BME280;71206;48.564;-123.458;2023-08-31T06:26:02;100900.56;;;19.16;100.00
29063;BME280;71206;48.564;-123.458;2023-08-31T06:28:28;100895.54;;;20.25;100.00
29063;BME280;71206;48.564;-123.458;2023-08-31T06:30:55;100902.69;;;19.06;100.00
29063;BME280;71206;48.564;-123.458;2023-08-31T06:33:19;100903.20;;;17.34;100.00
29063;BME280;71206;48.564;-123.458;2023-08-31T06:35:47;100899.09;;;18.27;100.00
29063;BME280;71206;48.564;-123.458;2023-08-31T06:38:12;100894.55;;;18.84;100.00
29063;BME280;71206;48.564;-123.458;2023-08-31T06:40:37;100898.40;;;17.38;100.00
29063;BME280;71206;48.564;-123.458;2023-08-31T06:43:03;100898.14;;;18.06;100.00
29063;BME280;71206;48.564;-123.458;2023-08-31T06:45:29;100896.85;;;17.71;100.00
29063;BME280;71206;48.564;-123.458;2023-08-31T06:47:54;100906.68;;;16.00;100.00
29063;BME280;71206;48.564;-123.458;2023-08-31T06:50:21;100904.20;;;16.58;100.00
29063;BME280;71206;48.564;-123.458;2023-08-31T06:52:46;100900.40;;;17.12;100.00
29063;BME280;71206;48.564;-123.458;2023-08-31T06:55:12;100894.84;;;18.34;100.00
29063;BME280;71206;48.564;-123.458;2023-08-31T06:57:38;100907.63;;;16.45;100.00
29063;BME280;71206;48.564;-123.458;2023-08-31T07:00:10;100901.33;;;17.51;100.00
29063;BME280;71206;48.564;-123.458;2023-08-31T07:02:30;100897.71;;;18.85;100.00
29063;BME280;71206;48.564;-123.458;2023-08-31T07:04:55;100898.30;;;19.29;100.00
29063;BME280;71206;48.564;-123.458;2023-08-31T07:07:21;100899.77;;;18.15;100.00
29063;BME280;71206;48.564;-123.458;2023-08-31T07:09:48;100905.28;;;16.83;100.00
29063;BME280;71206;48.564;-123.458;2023-08-31T07:12:13;100897.65;;;18.99;100.00
29063;BME280;71206;48.564;-123.458;2023-08-31T07:14:39;100892.64;;;19.59;100.00
29063;BME280;71206;48.564;-123.458;2023-08-31T07:17:05;100884.97;;;19.62;100.00
29063;BME280;71206;48.564;-123.458;2023-08-31T07:19:31;100878.18;;;19.97;100.00
29063;BME280;71206;48.564;-123.458;2023-08-31T07:21:58;100877.95;;;19.94;100.00
29063;BME280;71206;48.564;-123.458;2023-08-31T07:24:23;100884.93;;;17.71;100.00
29063;BME280;71206;48.564;-123.458;2023-08-31T07:26:48;100890.56;;;16.55;100.00
29063;BME280;71206;48.564;-123.458;2023-08-31T07:29:14;100880.08;;;18.76;100.00
29063;BME280;71206;48.564;-123.458;2023-08-31T07:31:40;100880.41;;;19.04;100.00
29063;BME280;71206;48.564;-123.458;2023-08-31T07:34:06;100881.01;;;17.03;100.00
29063;BME280;71206;48.564;-123.458;2023-08-31T07:36:34;100883.31;;;16.99;100.00
29063;BME280;71206;48.564;-123.458;2023-08-31T07:38:57;100875.19;;;17.32;100.00
29063;BME280;71206;48.564;-123.458;2023-08-31T07:41:23;100876.42;;;16.85;100.00
29063;BME280;71206;48.564;-123.458;2023-08-31T07:43:49;100871.76;;;17.92;100.00
29063;BME280;71206;48.564;-123.458;2023-08-31T07:46:15;100879.38;;;16.74;100.00
29063;BME280;71206;48.564;-123.458;2023-08-31T07:48:41;100878.62;;;16.60;100.00
29063;BME280;71206;48.564;-123.458;2023-08-31T07:51:06;100869.38;;;17.66;100.00
29063;BME280;71206;48.564;-123.458;2023-08-31T07:53:32;100867.05;;;18.19;100.00
29063;BME280;71206;48.564;-123.458;2023-08-31T07:55:58;100866.10;;;17.75;100.00
29063;BME280;71206;48.564;-123.458;2023-08-31T07:58:23;100863.62;;;17.27;100.00
29063;BME280;71206;48.564;-123.458;2023-08-31T08:00:51;100867.37;;;17.02;100.00
29063;BME280;71206;48.564;-123.458;2023-08-31T08:03:14;100869.58;;;15.93;100.00
29063;BME280;71206;48.564;-123.458;2023-08-31T08:05:40;100867.94;;;16.05;100.00
29063;BME280;71206;48.564;-123.458;2023-08-31T08:08:04;100864.84;;;15.15;100.00
29063;BME280;71206;48.564;-123.458;2023-08-31T08:10:33;100863.08;;;16.36;100.00
29063;BME280;71206;48.564;-123.458;2023-08-31T08:12:54;100854.13;;;17.17;100.00
29063;BME280;71206;48.564;-123.458;2023-08-31T08:15:19;100854.02;;;17.86;100.00
29063;BME280;71206;48.564;-123.458;2023-08-31T08:17:44;100848.26;;;18.80;100.00
29063;BME280;71206;48.564;-123.458;2023-08-31T08:20:10;100850.47;;;17.49;100.00
29063;BME280;71206;48.564;-123.458;2023-08-31T08:22:36;100857.18;;;15.69;100.00
29063;BME280;71206;48.564;-123.458;2023-08-31T08:25:00;100855.32;;;16.14;100.00
29063;BME280;71206;48.564;-123.458;2023-08-31T08:27:25;100853.17;;;16.82;100.00
29063;BME280;71206;48.564;-123.458;2023-08-31T08:29:49;100856.35;;;16.65;100.00
29063;BME280;71206;48.564;-123.458;2023-08-31T08:32:14;100847.99;;;16.99;100.00
29063;BME280;71206;48.564;-123.458;2023-08-31T08:34:40;100846.12;;;18.46;100.00
29063;BME280;71206;48.564;-123.458;2023-08-31T08:37:07;100846.94;;;17.09;100.00
29063;BME280;71206;48.564;-123.458;2023-08-31T08:39:32;100842.99;;;18.80;100.00
29063;BME280;71206;48.564;-123.458;2023-08-31T08:41:59;100843.29;;;18.03;100.00
29063;BME280;71206;48.564;-123.458;2023-08-31T08:44:25;100841.52;;;18.44;100.00
29063;BME280;71206;48.564;-123.458;2023-08-31T08:46:50;100842.06;;;17.50;100.00
29063;BME280;71206;48.564;-123.458;2023-08-31T08:49:16;100839.62;;;17.79;100.00
29063;BME280;71206;48.564;-123.458;2023-08-31T08:51:42;100836.40;;;17.85;100.00
29063;BME280;71206;48.564;-123.458;2023-08-31T08:54:08;100837.38;;;17.99;100.00
29063;BME280;71206;48.564;-123.458;2023-08-31T08:56:33;100832.71;;;17.80;100.00
29063;BME280;71206;48.564;-123.458;2023-08-31T08:58:59;100829.13;;;18.17;100.00
29063;BME280;71206;48.564;-123.458;2023-08-31T09:01:25;100823.06;;;18.01;100.00
29063;BME280;71206;48.564;-123.458;2023-08-31T09:03:52;100819.32;;;18.21;100.00
29063;BME280;71206;48.564;-123.458;2023-08-31T09:06:17;100817.32;;;18.10;100.00
29063;BME280;71206;48.564;-123.458;2023-08-31T09:08:42;100815.10;;;18.86;100.00
29063;BME280;71206;48.564;-123.458;2023-08-31T09:11:22;100815.24;;;18.02;100.00
29063;BME280;71206;48.564;-123.458;2023-08-31T09:13:35;100811.91;;;18.86;100.00
29063;BME280;71206;48.564;-123.458;2023-08-31T09:16:00;100806.58;;;19.21;100.00
29063;BME280;71206;48.564;-123.458;2023-08-31T09:18:28;100802.74;;;19.24;100.00
29063;BME280;71206;48.564;-123.458;2023-08-31T09:20:52;100800.63;;;18.79;100.00
29063;BME280;71206;48.564;-123.458;2023-08-31T09:23:18;100798.78;;;18.07;100.00
29063;BME280;71206;48.564;-123.458;2023-08-31T09:25:44;100794.41;;;19.48;100.00
29063;BME280;71206;48.564;-123.458;2023-08-31T09:28:09;100795.86;;;19.14;100.00
29063;BME280;71206;48.564;-123.458;2023-08-31T09:30:36;100794.82;;;19.41;100.00
29063;BME280;71206;48.564;-123.458;2023-08-31T09:33:03;100790.98;;;19.22;100.00
29063;BME280;71206;48.564;-123.458;2023-08-31T09:35:26;100794.82;;;18.58;100.00
29063;BME280;71206;48.564;-123.458;2023-08-31T09:37:56;100792.89;;;19.19;100.00
29063;BME280;71206;48.564;-123.458;2023-08-31T09:40:18;100792.04;;;19.22;100.00
29063;BME280;71206;48.564;-123.458;2023-08-31T09:42:44;100790.93;;;18.73;100.00
29063;BME280;71206;48.564;-123.458;2023-08-31T09:45:10;100794.02;;;17.62;100.00
29063;BME280;71206;48.564;-123.458;2023-08-31T09:47:37;100791.12;;;17.06;100.00
29063;BME280;71206;48.564;-123.458;2023-08-31T09:50:02;100797.35;;;16.35;100.00
29063;BME280;71206;48.564;-123.458;2023-08-31T09:52:27;100787.75;;;17.51;100.00
29063;BME280;71206;48.564;-123.458;2023-08-31T09:54:55;100781.11;;;18.18;100.00
29063;BME280;71206;48.564;-123.458;2023-08-31T09:57:18;100775.16;;;18.94;100.00
29063;BME280;71206;48.564;-123.458;2023-08-31T09:59:45;100774.95;;;18.78;100.00
29063;BME280;71206;48.564;-123.458;2023-08-31T10:02:12;100778.41;;;18.17;100.00
29063;BME280;71206;48.564;-123.458;2023-08-31T10:04:36;100774.42;;;17.84;100.00
29063;BME280;71206;48.564;-123.458;2023-08-31T10:07:02;100771.31;;;17.56;100.00
29063;BME280;71206;48.564;-123.458;2023-08-31T10:09:33;100769.72;;;17.44;100.00
29063;BME280;71206;48.564;-123.458;2023-08-31T10:11:53;100769.82;;;16.50;100.00
29063;BME280;71206;48.564;-123.458;2023-08-31T10:14:19;100769.52;;;16.83;100.00
29063;BME280;71206;48.564;-123.458;2023-08-31T10:16:44;100766.56;;;16.82;100.00
29063;BME280;71206;48.564;-123.458;2023-08-31T10:19:08;100760.48;;;18.05;100.00
29063;BME280;71206;48.564;-123.458;2023-08-31T10:21:34;100757.01;;;18.60;100.00
29063;BME280;71206;48.564;-123.458;2023-08-31T10:23:58;100753.93;;;19.09;100.00
29063;BME280;71206;48.564;-123.458;2023-08-31T10:26:25;100746.36;;;19.26;100.00
29063;BME280;71206;48.564;-123.458;2023-08-31T10:28:49;100742.08;;;19.41;100.00
29063;BME280;71206;48.564;-123.458;2023-08-31T10:31:18;100739.46;;;18.91;100.00
29063;BME280;71206;48.564;-123.458;2023-08-31T10:33:43;100741.37;;;19.12;100.00
29063;BME280;71206;48.564;-123.458;2023-08-31T10:36:11;100742.73;;;18.30;100.00
29063;BME280;71206;48.564;-123.458;2023-08-31T10:38:33;100747.42;;;16.63;100.00
29063;BME280;71206;48.564;-123.458;2023-08-31T10:41:17;100756.33;;;15.99;100.00
29063;BME280;71206;48.564;-123.458;2023-08-31T10:43:24;100756.63;;;15.50;100.00
29063;BME280;71206;48.564;-123.458;2023-08-31T10:45:51;100754.04;;;15.36;100.00
29063;BME280;71206;48.564;-123.458;2023-08-31T10:48:14;100748.08;;;16.72;100.00
29063;BME280;71206;48.564;-123.458;2023-08-31T10:50:43;100738.04;;;18.53;100.00
29063;BME280;71206;48.564;-123.458;2023-08-31T10:53:09;100729.49;;;18.50;100.00
29063;BME280;71206;48.564;-123.458;2023-08-31T10:55:33;100728.73;;;18.16;100.00
29063;BME280;71206;48.564;-123.458;2023-08-31T10:57:57;100729.06;;;17.84;100.00
29063;BME280;71206;48.564;-123.458;2023-08-31T11:02:48;100723.70;;;18.18;100.00
29063;BME280;71206;48.564;-123.458;2023-08-31T11:05:12;100721.03;;;16.93;100.00
29063;BME280;71206;48.564;-123.458;2023-08-31T11:07:38;100726.86;;;16.14;100.00
29063;BME280;71206;48.564;-123.458;2023-08-31T11:10:11;100727.53;;;15.53;100.00
29063;BME280;71206;48.564;-123.458;2023-08-31T11:12:26;100726.77;;;14.85;100.00
29063;BME280;71206;48.564;-123.458;2023-08-31T11:14:53;100728.38;;;14.55;100.00
29063;BME280;71206;48.564;-123.458;2023-08-31T11:17:17;100729.37;;;15.09;100.00
29063;BME280;71206;48.564;-123.458;2023-08-31T11:19:42;100727.11;;;15.48;100.00
29063;BME280;71206;48.564;-123.458;2023-08-31T11:22:07;100725.80;;;15.40;100.00
29063;BME280;71206;48.564;-123.458;2023-08-31T11:24:33;100727.03;;;16.00;100.00
29063;BME280;71206;48.564;-123.458;2023-08-31T11:26:58;100719.03;;;16.46;100.00
29063;BME280;71206;48.564;-123.458;2023-08-31T11:29:23;100717.42;;;17.72;100.00
29063;BME280;71206;48.564;-123.458;2023-08-31T11:31:48;100713.95;;;16.59;100.00
29063;BME280;71206;48.564;-123.458;2023-08-31T11:34:15;100713.88;;;17.69;100.00
29063;BME280;71206;48.564;-123.458;2023-08-31T11:36:38;100710.98;;;18.09;100.00
29063;BME280;71206;48.564;-123.458;2023-08-31T11:39:04;100706.01;;;18.08;100.00
29063;BME280;71206;48.564;-123.458;2023-08-31T11:41:31;100704.47;;;18.06;100.00
29063;BME280;71206;48.564;-123.458;2023-08-31T11:43:54;100706.65;;;18.01;100.00
29063;BME280;71206;48.564;-123.458;2023-08-31T11:46:20;100705.06;;;17.86;100.00
29063;BME280;71206;48.564;-123.458;2023-08-31T11:48:46;100706.80;;;17.91;100.00
29063;BME280;71206;48.564;-123.458;2023-08-31T11:51:11;100699.85;;;18.23;100.00
29063;BME280;71206;48.564;-123.458;2023-08-31T11:53:37;100697.55;;;18.06;100.00
29063;BME280;71206;48.564;-123.458;2023-08-31T11:56:03;100693.91;;;18.48;100.00
29063;BME280;71206;48.564;-123.458;2023-08-31T11:58:28;100695.69;;;17.56;100.00
29063;BME280;71206;48.564;-123.458;2023-08-31T12:00:58;100692.91;;;18.14;100.00
29063;BME280;71206;48.564;-123.458;2023-08-31T12:03:20;100688.82;;;18.12;100.00
29063;BME280;71206;48.564;-123.458;2023-08-31T12:05:46;100692.12;;;16.34;100.00
29063;BME280;71206;48.564;-123.458;2023-08-31T12:08:12;100692.26;;;17.76;100.00